Time;durP1;ratioP1;P1;durP2;ratioP2;P2;SDS_P1;SDS_P2;PMS_P1;PMS_P2;Temp;Humidity;BMP_temperature;BMP_pressure;BME280_temperature;BME280_humidity;BME280_pressure;Samples;Min_cycle;Max_cycle;Signal;HPM_P1;HPM_P2
2023/05/16 00:00:34;;;;;;;;;;;;;;;;;;5071504;28;19972;-65
2023/05/16 00:03:00;;;;;;;;;;;;;;;;;;5071469;28;20321;-65
2023/05/16 00:05:26;;;;;;;;;;;;;;;;;;5070704;28;19921;-65
2023/05/16 00:07:52;;;;;;;;;;;;;;;;;;5071284;28;19947;-65
2023/05/16 00:10:18;;;;;;;;;;;;;;;;;;5071309;28;19924;-65
2023/05/16 00:12:44;;;;;;;;;;;;;;;;;;5070596;28;20317;-65
2023/05/16 00:15:13;;;;;;;;;;;;;;;;;;5070966;28;20362;-65
2023/05/16 00:17:39;;;;;;;;;;;;;;;;;;5071235;28;19967;-65
2023/05/16 00:20:09;;;;;;;;;;;;;;;;;;5070718;28;20003;-65
2023/05/16 00:22:36;;;;;;;;;;;;;;;;;;5070612;28;19921;-65
2023/05/16 00:25:02;;;;;;;;;;;;;;;;;;5071283;28;19924;-65
2023/05/16 00:27:28;;;;;;;;;;;;;;;;;;5091197;28;19920;-65
2023/05/16 00:29:54;;;;;;;;;;;;;;;;;;5090414;28;19920;-65
2023/05/16 00:32:20;;;;;;;;;;;;;;;;;;5091133;28;19924;-65
2023/05/16 00:34:46;;;;;;;;;;;;;;;;;;5091104;28;19928;-65
2023/05/16 00:37:12;;;;;;;;;;;;;;;;;;5090533;28;19923;-65
2023/05/16 00:39:38;;;;;;;;;;;;;;;;;;5072769;28;19927;-65
2023/05/16 00:42:04;;;;;;;;;;;;;;;;;;5090996;28;19920;-65
2023/05/16 00:44:30;;;;;;;;;;;;;;;;;;5090667;28;20017;-65
2023/05/16 00:46:57;;;;;;;;;;;;;;;;;;5090932;28;19969;-65
2023/05/16 00:49:23;;;;;;;;;;;;;;;;;;5090586;28;20309;-65
2023/05/16 00:51:50;;;;;;;;;;;;;;;;;;5089922;28;19920;-65
2023/05/16 00:54:15;;;;;;;;;;;;;;;;;;5090425;28;19935;-65
2023/05/16 00:56:41;;;;;;;;;;;;;;;;;;5090775;28;19924;-65
2023/05/16 00:59:07;;;;;;;;;;;;;;;;;;5072196;28;20010;-65
2023/05/16 01:01:33;;;;;;;;;;;;;;;;;;5072242;28;20001;-65
2023/05/16 01:03:59;;;;;;;;;;;;;;;;;;5090788;28;19924;-65
2023/05/16 01:06:25;;;;;;;;;;;;;;;;;;5090278;28;20263;-65
2023/05/16 01:08:51;;;;;;;;;;;;;;;;;;5090690;28;19920;-65
2023/05/16 01:11:20;;;;;;;;;;;;;;;;;;5072393;28;19978;-65
2023/05/16 01:13:46;;;;;;;;;;;;;;;;;;5090103;28;19924;-65
2023/05/16 01:16:12;;;;;;;;;;;;;;;;;;5072658;28;20423;-65
2023/05/16 01:18:38;;;;;;;;;;;;;;;;;;5090706;28;19946;-65
2023/05/16 01:21:04;;;;;;;;;;;;;;;;;;5089917;28;19920;-65
2023/05/16 01:23:29;;;;;;;;;;;;;;;;;;5090253;28;19931;-65
2023/05/16 01:25:56;;;;;;;;;;;;;;;;;;5081912;28;19932;-65
2023/05/16 01:28:22;;;;;;;;;;;;;;;;;;5079900;28;20425;-65
2023/05/16 01:30:48;;;;;;;;;;;;;;;;;;5090410;28;19924;-65
2023/05/16 01:33:14;;;;;;;;;;;;;;;;;;5072176;28;20006;-65
2023/05/16 01:35:41;;;;;;;;;;;;;;;;;;5089818;28;19924;-65
2023/05/16 01:38:07;;;;;;;;;;;;;;;;;;5090385;28;20580;-65
2023/05/16 01:40:33;;;;;;;;;;;;;;;;;;5090019;28;19946;-65
2023/05/16 01:42:59;;;;;;;;;;;;;;;;;;5089754;28;20414;-65
2023/05/16 01:45:25;;;;;;;;;;;;;;;;;;5090178;28;19960;-65
2023/05/16 01:47:51;;;;;;;;;;;;;;;;;;5090463;28;19993;-65
2023/05/16 01:50:17;;;;;;;;;;;;;;;;;;5089426;28;19966;-65
2023/05/16 01:52:43;;;;;;;;;;;;;;;;;;5090057;28;19974;-65
2023/05/16 01:55:09;;;;;;;;;;;;;;;;;;5090351;28;19928;-65
2023/05/16 01:57:35;;;;;;;;;;;;;;;;;;5089503;28;19928;-65
2023/05/16 02:00:01;;;;;;;;;;;;;;;;;;5090642;28;19928;-65
2023/05/16 02:02:27;;;;;;;;;;;;;;;;;;5094103;28;19928;-65
2023/05/16 02:04:53;;;;;;;;;;;;;;;;;;5093525;28;19927;-65
2023/05/16 02:07:19;;;;;;;;;;;;;;;;;;5093959;28;19931;-65
2023/05/16 02:09:45;;;;;;;;;;;;;;;;;;5093877;28;19928;-65
2023/05/16 02:12:11;;;;;;;;;;;;;;;;;;5093179;28;20023;-65
2023/05/16 02:14:37;;;;;;;;;;;;;;;;;;5093690;28;19932;-65
2023/05/16 02:17:03;;;;;;;;;;;;;;;;;;5093852;28;20336;-65
2023/05/16 02:19:29;;;;;;;;;;;;;;;;;;5093039;28;20014;-65
2023/05/16 02:21:55;;;;;;;;;;;;;;;;;;5093466;28;20500;-65
2023/05/16 02:24:21;;;;;;;;;;;;;;;;;;5093254;28;19934;-65
2023/05/16 02:26:47;;;;;;;;;;;;;;;;;;5077212;28;20036;-65
2023/05/16 02:29:15;;;;;;;;;;;;;;;;;;5090323;28;19924;-65
2023/05/16 02:31:41;;;;;;;;;;;;;;;;;;5093389;28;19931;-65
2023/05/16 02:34:07;;;;;;;;;;;;;;;;;;5092898;28;20437;-65
2023/05/16 02:36:34;;;;;;;;;;;;;;;;;;5093259;28;20010;-65
2023/05/16 02:39:00;;;;;;;;;;;;;;;;;;5093366;28;19924;-65
2023/05/16 02:41:26;;;;;;;;;;;;;;;;;;5092857;28;19931;-65
2023/05/16 02:43:52;;;;;;;;;;;;;;;;;;5075195;28;20474;-65
2023/05/16 02:46:18;;;;;;;;;;;;;;;;;;5092841;28;19924;-65
2023/05/16 02:48:44;;;;;;;;;;;;;;;;;;5074165;28;19924;-65
2023/05/16 02:51:10;;;;;;;;;;;;;;;;;;5092467;28;20446;-64
2023/05/16 02:53:37;;;;;;;;;;;;;;;;;;5092927;28;19963;-64
2023/05/16 02:56:05;;;;;;;;;;;;;;;;;;5092454;28;19920;-64
2023/05/16 02:58:31;;;;;;;;;;;;;;;;;;5074896;28;20414;-64
2023/05/16 03:00:57;;;;;;;;;;;;;;;;;;5093054;28;19920;-65
2023/05/16 03:03:23;;;;;;;;;;;;;;;;;;5074264;28;19920;-65
2023/05/16 03:05:50;;;;;;;;;;;;;;;;;;5092899;28;19924;-65
2023/05/16 03:08:16;;;;;;;;;;;;;;;;;;5092794;28;19931;-65
2023/05/16 03:10:42;;;;;;;;;;;;;;;;;;5092179;28;19924;-65
2023/05/16 03:13:08;;;;;;;;;;;;;;;;;;5091025;28;19931;-65
2023/05/16 03:15:34;;;;;;;;;;;;;;;;;;5074623;28;19920;-64
2023/05/16 03:18:00;;;;;;;;;;;;;;;;;;5092158;28;19977;-65
2023/05/16 03:20:26;;;;;;;;;;;;;;;;;;5092658;28;19923;-65
2023/05/16 03:22:52;;;;;;;;;;;;;;;;;;5092355;28;19931;-65
2023/05/16 03:25:18;;;;;;;;;;;;;;;;;;5088424;28;19928;-65
2023/05/16 03:27:44;;;;;;;;;;;;;;;;;;5058938;28;20326;-65
2023/05/16 03:30:10;;;;;;;;;;;;;;;;;;5092304;28;19924;-65
2023/05/16 03:32:36;;;;;;;;;;;;;;;;;;5091755;28;19933;-65
2023/05/16 03:35:02;;;;;;;;;;;;;;;;;;5092265;28;19958;-65
2023/05/16 03:37:28;;;;;;;;;;;;;;;;;;5073592;28;19923;-65
2023/05/16 03:39:56;;;;;;;;;;;;;;;;;;5091264;28;20451;-65
2023/05/16 03:42:22;;;;;;;;;;;;;;;;;;5091368;28;19924;-65
2023/05/16 03:44:48;;;;;;;;;;;;;;;;;;5092001;28;19924;-65
2023/05/16 03:47:14;;;;;;;;;;;;;;;;;;5091759;28;19985;-65
2023/05/16 03:49:40;;;;;;;;;;;;;;;;;;5091025;28;20297;-65
2023/05/16 03:52:06;;;;;;;;;;;;;;;;;;5091745;28;19931;-65
2023/05/16 03:54:33;;;;;;;;;;;;;;;;;;5091824;28;19989;-65
2023/05/16 03:56:59;;;;;;;;;;;;;;;;;;5073207;28;19931;-65
2023/05/16 03:59:25;;;;;;;;;;;;;;;;;;5091874;28;19927;-65
2023/05/16 04:01:50;;;;;;;;;;;;;;;;;;5091667;28;19924;-65
2023/05/16 04:04:16;;;;;;;;;;;;;;;;;;5091047;28;20011;-65
2023/05/16 04:06:42;;;;;;;;;;;;;;;;;;5091692;28;19954;-65
2023/05/16 04:09:08;;;;;;;;;;;;;;;;;;5091585;28;19974;-65
2023/05/16 04:11:35;;;;;;;;;;;;;;;;;;5090881;28;19924;-65
2023/05/16 04:14:01;;;;;;;;;;;;;;;;;;5091234;28;19963;-65
2023/05/16 04:16:27;;;;;;;;;;;;;;;;;;5073371;28;19979;-65
2023/05/16 04:18:53;;;;;;;;;;;;;;;;;;5090824;28;20414;-65
2023/05/16 04:21:19;;;;;;;;;;;;;;;;;;5091450;28;19920;-65
2023/05/16 04:23:45;;;;;;;;;;;;;;;;;;5090918;28;19932;-65
2023/05/16 04:26:11;;;;;;;;;;;;;;;;;;5080328;28;19947;-65
2023/05/16 04:28:37;;;;;;;;;;;;;;;;;;5082856;28;19924;-65
2023/05/16 04:31:03;;;;;;;;;;;;;;;;;;5091534;28;19931;-65
2023/05/16 04:33:29;;;;;;;;;;;;;;;;;;5090436;28;19947;-65
2023/05/16 04:35:57;;;;;;;;;;;;;;;;;;5091353;28;19928;-65
2023/05/16 04:38:23;;;;;;;;;;;;;;;;;;5090963;28;19931;-65
2023/05/16 04:40:51;;;;;;;;;;;;;;;;;;5090832;28;19924;-65
2023/05/16 04:43:17;;;;;;;;;;;;;;;;;;5072885;28;19982;-65
2023/05/16 04:45:44;;;;;;;;;;;;;;;;;;5091356;28;19920;-65
2023/05/16 04:48:11;;;;;;;;;;;;;;;;;;5090741;28;19931;-65
2023/05/16 04:50:37;;;;;;;;;;;;;;;;;;5091117;28;20416;-65
2023/05/16 04:53:03;;;;;;;;;;;;;;;;;;5091209;28;20018;-65
2023/05/16 04:55:28;;;;;;;;;;;;;;;;;;5072380;28;19924;-65
2023/05/16 04:57:54;;;;;;;;;;;;;;;;;;5072640;28;20046;-65
2023/05/16 05:00:21;;;;;;;;;;;;;;;;;;5090837;28;19924;-65
2023/05/16 05:02:47;;;;;;;;;;;;;;;;;;5090570;28;19989;-65
2023/05/16 05:05:13;;;;;;;;;;;;;;;;;;5091097;28;19920;-65
2023/05/16 05:07:39;;;;;;;;;;;;;;;;;;5083045;28;19927;-65
2023/05/16 05:10:06;;;;;;;;;;;;;;;;;;5089224;28;19920;-65
2023/05/16 05:12:32;;;;;;;;;;;;;;;;;;5072047;28;19924;-64
2023/05/16 05:14:58;;;;;;;;;;;;;;;;;;5072299;28;19924;-65
2023/05/16 05:17:24;;;;;;;;;;;;;;;;;;5089861;28;19954;-65
2023/05/16 05:19:50;;;;;;;;;;;;;;;;;;5090210;28;19924;-65
2023/05/16 05:22:16;;;;;;;;;;;;;;;;;;5090681;28;19927;-65
2023/05/16 05:24:42;;;;;;;;;;;;;;;;;;5089548;28;19958;-65
2023/05/16 05:27:08;;;;;;;;;;;;;;;;;;5090711;28;19946;-65
2023/05/16 05:29:34;;;;;;;;;;;;;;;;;;5089837;28;19927;-65
2023/05/16 05:32:00;;;;;;;;;;;;;;;;;;5089903;28;19924;-65
2023/05/16 05:34:26;;;;;;;;;;;;;;;;;;5090164;28;19928;-65
2023/05/16 05:36:52;;;;;;;;;;;;;;;;;;5093411;28;19924;-65
2023/05/16 05:39:18;;;;;;;;;;;;;;;;;;5093870;28;19956;-65
2023/05/16 05:41:44;;;;;;;;;;;;;;;;;;5094053;28;20002;-65
2023/05/16 05:44:10;;;;;;;;;;;;;;;;;;5093786;28;19972;-65
2023/05/16 05:46:39;;;;;;;;;;;;;;;;;;5093466;28;20015;-65
2023/05/16 05:49:05;;;;;;;;;;;;;;;;;;5094135;28;20019;-65
2023/05/16 05:51:31;;;;;;;;;;;;;;;;;;5093856;28;19942;-65
2023/05/16 05:53:57;;;;;;;;;;;;;;;;;;5075145;28;19928;-65
2023/05/16 05:56:26;;;;;;;;;;;;;;;;;;5093454;28;19920;-65
2023/05/16 05:58:52;;;;;;;;;;;;;;;;;;5093690;28;19967;-65
2023/05/16 06:01:19;;;;;;;;;;;;;;;;;;5093057;28;19920;-65
2023/05/16 06:03:45;;;;;;;;;;;;;;;;;;5093611;28;20401;-65
2023/05/16 06:06:13;;;;;;;;;;;;;;;;;;5075333;28;19931;-65
2023/05/16 06:08:39;;;;;;;;;;;;;;;;;;5093212;28;19972;-64
2023/05/16 06:11:05;;;;;;;;;;;;;;;;;;5093757;28;19920;-65
2023/05/16 06:13:31;;;;;;;;;;;;;;;;;;5092958;28;19924;-64
2023/05/16 06:15:57;;;;;;;;;;;;;;;;;;5074938;28;19934;-65
2023/05/16 06:18:23;;;;;;;;;;;;;;;;;;5093741;28;19954;-65
2023/05/16 06:20:49;;;;;;;;;;;;;;;;;;5093207;28;19920;-65
2023/05/16 06:23:15;;;;;;;;;;;;;;;;;;5093201;28;19920;-65
2023/05/16 06:25:41;;;;;;;;;;;;;;;;;;5085285;28;19924;-61
2023/05/16 06:28:07;;;;;;;;;;;;;;;;;;5092974;28;19930;-63
2023/05/16 06:30:33;;;;;;;;;;;;;;;;;;5092455;28;19928;-63
2023/05/16 06:32:59;;;;;;;;;;;;;;;;;;5074783;28;19928;-62
2023/05/16 06:35:25;;;;;;;;;;;;;;;;;;5093062;28;19969;-63
2023/05/16 06:37:51;;;;;;;;;;;;;;;;;;5092200;28;19924;-64
2023/05/16 06:40:17;;;;;;;;;;;;;;;;;;5092979;28;19943;-63
2023/05/16 06:42:43;;;;;;;;;;;;;;;;;;5092986;28;20027;-62
2023/05/16 06:45:09;;;;;;;;;;;;;;;;;;5092475;28;19924;-62
2023/05/16 06:47:35;;;;;;;;;;;;;;;;;;5092538;28;19924;-62
2023/05/16 06:50:01;;;;;;;;;;;;;;;;;;5092773;28;20291;-63
2023/05/16 06:52:27;;;;;;;;;;;;;;;;;;5092371;28;19924;-63
2023/05/16 06:54:53;;;;;;;;;;;;;;;;;;5092319;28;20363;-64
2023/05/16 06:57:19;;;;;;;;;;;;;;;;;;5091501;28;19920;-62
2023/05/16 06:59:45;;;;;;;;;;;;;;;;;;5091663;28;20247;-62
2023/05/16 07:02:12;;;;;;;;;;;;;;;;;;5091898;28;19987;-63
2023/05/16 07:04:39;;;;;;;;;;;;;;;;;;5073887;28;19970;-62
2023/05/16 07:07:06;;;;;;;;;;;;;;;;;;5087474;28;19970;-62
2023/05/16 07:09:33;;;;;;;;;;;;;;;;;;5076431;28;19979;-62
2023/05/16 07:11:59;;;;;;;;;;;;;;;;;;5086998;28;20018;-61
2023/05/16 07:14:24;;;;;;;;;;;;;;;;;;5078698;28;20043;-61
2023/05/16 07:16:50;;;;;;;;;;;;;;;;;;5083247;28;19931;-62
2023/05/16 07:19:16;;;;;;;;;;;;;;;;;;5091618;28;19920;-62
2023/05/16 07:21:42;;;;;;;;;;;;;;;;;;5090679;28;19920;-62
2023/05/16 07:24:08;;;;;;;;;;;;;;;;;;5085324;28;19931;-63
2023/05/16 07:26:34;;;;;;;;;;;;;;;;;;5084658;28;19944;-63
2023/05/16 07:29:01;;;;;;;;;;;;;;;;;;5091712;28;19924;-63
2023/05/16 07:31:27;;;;;;;;;;;;;;;;;;5084357;28;19937;-63
2023/05/16 07:33:53;;;;;;;;;;;;;;;;;;5082173;28;19924;-62
2023/05/16 07:36:20;;;;;;;;;;;;;;;;;;5060702;28;19924;-62
2023/05/16 07:38:46;;;;;;;;;;;;;;;;;;5090487;28;19924;-62
2023/05/16 07:41:12;;;;;;;;;;;;;;;;;;5090440;28;19924;-61
2023/05/16 07:43:38;;;;;;;;;;;;;;;;;;5086478;28;20007;-61
2023/05/16 07:46:03;;;;;;;;;;;;;;;;;;5079552;28;19939;-60
2023/05/16 07:48:29;;;;;;;;;;;;;;;;;;5072451;28;19923;-61
2023/05/16 07:50:55;;;;;;;;;;;;;;;;;;5090264;28;19920;-61
2023/05/16 07:53:21;;;;;;;;;;;;;;;;;;5071581;28;20005;-61
2023/05/16 07:55:47;;;;;;;;;;;;;;;;;;5083314;28;19928;-62
2023/05/16 07:58:13;;;;;;;;;;;;;;;;;;5086379;28;19943;-61
2023/05/16 08:00:39;;;;;;;;;;;;;;;;;;5087742;28;19928;-61
2023/05/16 08:03:05;;;;;;;;;;;;;;;;;;5088774;28;19936;-62
2023/05/16 08:05:31;;;;;;;;;;;;;;;;;;5089102;28;20308;-61
2023/05/16 08:07:57;;;;;;;;;;;;;;;;;;5080624;28;20012;-62
2023/05/16 08:10:23;;;;;;;;;;;;;;;;;;5083223;28;20019;-60
2023/05/16 08:12:49;;;;;;;;;;;;;;;;;;5089091;28;19986;-59
2023/05/16 08:15:15;;;;;;;;;;;;;;;;;;5084311;28;19927;-60
2023/05/16 08:17:41;;;;;;;;;;;;;;;;;;5084882;28;19920;-58
2023/05/16 08:20:07;;;;;;;;;;;;;;;;;;5089854;28;19964;-58
2023/05/16 08:22:33;;;;;;;;;;;;;;;;;;5083743;28;19920;-58
2023/05/16 08:24:59;;;;;;;;;;;;;;;;;;5071373;28;19928;-59
2023/05/16 08:27:25;;;;;;;;;;;;;;;;;;5071541;28;20366;-58
2023/05/16 08:29:51;;;;;;;;;;;;;;;;;;5088906;28;19920;-60
2023/05/16 08:32:17;;;;;;;;;;;;;;;;;;5083739;28;19924;-60
2023/05/16 08:34:43;;;;;;;;;;;;;;;;;;5079709;28;19971;-60
2023/05/16 08:37:09;;;;;;;;;;;;;;;;;;5085299;28;19924;-61
2023/05/16 08:39:35;;;;;;;;;;;;;;;;;;5086725;28;19923;-62
2023/05/16 08:42:02;;;;;;;;;;;;;;;;;;5077737;28;19924;-62
2023/05/16 08:44:28;;;;;;;;;;;;;;;;;;5087350;28;19920;-62
2023/05/16 08:46:55;;;;;;;;;;;;;;;;;;5089642;28;20434;-61
2023/05/16 08:49:20;;;;;;;;;;;;;;;;;;5084576;28;19931;-62
2023/05/16 08:51:46;;;;;;;;;;;;;;;;;;5083799;28;19924;-61
2023/05/16 08:54:12;;;;;;;;;;;;;;;;;;5086430;28;19928;-60
2023/05/16 08:56:38;;;;;;;;;;;;;;;;;;5080457;28;20612;-62
2023/05/16 08:59:04;;;;;;;;;;;;;;;;;;5078806;28;19943;-61
2023/05/16 09:01:33;;;;;;;;;;;;;;;;;;5086838;28;19924;-61
2023/05/16 09:03:59;;;;;;;;;;;;;;;;;;5088964;28;20390;-61
2023/05/16 09:06:25;;;;;;;;;;;;;;;;;;5089134;28;19931;-63
2023/05/16 09:08:51;;;;;;;;;;;;;;;;;;5084527;28;19920;-62
2023/05/16 09:11:17;;;;;;;;;;;;;;;;;;5068513;28;20002;-61
2023/05/16 09:13:43;;;;;;;;;;;;;;;;;;5069397;28;19929;-61
2023/05/16 09:16:09;;;;;;;;;;;;;;;;;;5079735;28;19959;-62
2023/05/16 09:18:36;;;;;;;;;;;;;;;;;;5088861;28;20359;-62
2023/05/16 09:21:02;;;;;;;;;;;;;;;;;;5084587;28;19924;-62
2023/05/16 09:23:28;;;;;;;;;;;;;;;;;;5081954;28;19974;-61
2023/05/16 09:25:54;;;;;;;;;;;;;;;;;;5077485;28;19920;-62
2023/05/16 09:28:21;;;;;;;;;;;;;;;;;;5052729;28;19924;-61
2023/05/16 09:30:47;;;;;;;;;;;;;;;;;;5088474;28;19927;-62
2023/05/16 09:33:13;;;;;;;;;;;;;;;;;;5076029;28;19924;-62
2023/05/16 09:35:39;;;;;;;;;;;;;;;;;;5082085;28;20010;-61
2023/05/16 09:38:05;;;;;;;;;;;;;;;;;;5088971;28;19969;-63
2023/05/16 09:40:31;;;;;;;;;;;;;;;;;;5082570;28;19924;-62
2023/05/16 09:42:57;;;;;;;;;;;;;;;;;;5087359;28;19928;-61
2023/05/16 09:45:23;;;;;;;;;;;;;;;;;;5083894;28;19924;-61
2023/05/16 09:47:49;;;;;;;;;;;;;;;;;;5081728;28;19977;-61
2023/05/16 09:50:15;;;;;;;;;;;;;;;;;;5084529;28;20027;-62
2023/05/16 09:52:41;;;;;;;;;;;;;;;;;;5087899;28;20007;-63
2023/05/16 09:55:07;;;;;;;;;;;;;;;;;;5088551;28;19928;-63
2023/05/16 09:57:33;;;;;;;;;;;;;;;;;;5085134;28;19928;-62
2023/05/16 10:00:04;;;;;;;;;;;;;;;;;;5088353;28;20507;-63
2023/05/16 10:02:30;;;;;;;;;;;;;;;;;;5083734;28;20339;-63
2023/05/16 10:04:56;;;;;;;;;;;;;;;;;;5086105;28;19924;-62
2023/05/16 10:07:22;;;;;;;;;;;;;;;;;;5070018;28;19924;-64
2023/05/16 10:09:48;;;;;;;;;;;;;;;;;;5074841;28;20027;-63
2023/05/16 10:12:14;;;;;;;;;;;;;;;;;;5083328;28;19925;-64
2023/05/16 10:14:40;;;;;;;;;;;;;;;;;;5088106;28;19931;-61
2023/05/16 10:17:06;;;;;;;;;;;;;;;;;;5087933;28;19927;-62
2023/05/16 10:19:32;;;;;;;;;;;;;;;;;;5087927;28;19942;-62
2023/05/16 10:21:58;;;;;;;;;;;;;;;;;;5090298;28;19924;-62
2023/05/16 10:24:24;;;;;;;;;;;;;;;;;;5090900;28;20399;-64
2023/05/16 10:26:50;;;;;;;;;;;;;;;;;;5060730;28;20363;-62
2023/05/16 10:29:16;;;;;;;;;;;;;;;;;;5091082;28;19939;-63
2023/05/16 10:31:42;;;;;;;;;;;;;;;;;;5091966;28;20697;-62
2023/05/16 10:34:09;;;;;;;;;;;;;;;;;;5091856;28;19924;-62
2023/05/16 10:36:35;;;;;;;;;;;;;;;;;;5091660;28;19927;-62
2023/05/16 10:39:01;;;;;;;;;;;;;;;;;;5092226;28;20002;-62
2023/05/16 10:41:26;;;;;;;;;;;;;;;;;;5091680;28;19931;-62
2023/05/16 10:43:52;;;;;;;;;;;;;;;;;;5091109;28;19924;-62
2023/05/16 10:46:18;;;;;;;;;;;;;;;;;;5092311;28;19924;-62
2023/05/16 10:48:44;;;;;;;;;;;;;;;;;;5074047;28;19920;-62
2023/05/16 10:51:10;;;;;;;;;;;;;;;;;;5091435;28;19947;-62
2023/05/16 10:53:36;;;;;;;;;;;;;;;;;;5068119;28;20020;-62
2023/05/16 10:56:02;;;;;;;;;;;;;;;;;;5083924;28;20031;-62
2023/05/16 10:58:28;;;;;;;;;;;;;;;;;;5073289;28;19924;-62
2023/05/16 11:00:54;;;;;;;;;;;;;;;;;;5091834;28;19947;-62
2023/05/16 11:03:22;;;;;;;;;;;;;;;;;;5072857;28;19924;-62
2023/05/16 11:05:47;;;;;;;;;;;;;;;;;;5088602;28;19955;-63
2023/05/16 11:08:13;;;;;;;;;;;;;;;;;;5082965;28;19971;-62
2023/05/16 11:10:39;;;;;;;;;;;;;;;;;;5089134;28;20035;-60
2023/05/16 11:13:05;;;;;;;;;;;;;;;;;;5087067;28;19924;-59
2023/05/16 11:15:31;;;;;;;;;;;;;;;;;;5089363;28;19943;-61
2023/05/16 11:17:57;;;;;;;;;;;;;;;;;;5091682;28;19924;-60
2023/05/16 11:20:23;;;;;;;;;;;;;;;;;;5090774;28;20681;-62
2023/05/16 11:22:50;;;;;;;;;;;;;;;;;;5090945;28;19920;-61
2023/05/16 11:25:16;;;;;;;;;;;;;;;;;;5069616;28;19928;-61
2023/05/16 11:27:42;;;;;;;;;;;;;;;;;;5078664;28;19931;-64
2023/05/16 11:30:08;;;;;;;;;;;;;;;;;;5081404;28;19943;-62
2023/05/16 11:32:34;;;;;;;;;;;;;;;;;;5080651;28;19928;-62
2023/05/16 11:35:01;;;;;;;;;;;;;;;;;;5056505;28;19932;-63
2023/05/16 11:37:27;;;;;;;;;;;;;;;;;;5084802;28;19920;-62
2023/05/16 11:39:53;;;;;;;;;;;;;;;;;;5090657;28;19970;-62
2023/05/16 11:42:19;;;;;;;;;;;;;;;;;;5090354;28;19924;-61
2023/05/16 11:44:45;;;;;;;;;;;;;;;;;;5089823;28;19926;-63
2023/05/16 11:47:11;;;;;;;;;;;;;;;;;;5084760;28;19920;-63
2023/05/16 11:49:37;;;;;;;;;;;;;;;;;;5080948;28;19932;-61
2023/05/16 11:52:03;;;;;;;;;;;;;;;;;;5089594;28;19920;-63
2023/05/16 11:54:29;;;;;;;;;;;;;;;;;;5090715;28;19951;-63
2023/05/16 11:56:55;;;;;;;;;;;;;;;;;;5085161;28;19967;-63
2023/05/16 11:59:21;;;;;;;;;;;;;;;;;;5089873;28;19920;-60
2023/05/16 12:01:50;;;;;;;;;;;;;;;;;;5089768;28;19989;-62
2023/05/16 12:04:16;;;;;;;;;;;;;;;;;;5085775;28;19924;-67
2023/05/16 12:06:43;;;;;;;;;;;;;;;;;;5084728;28;19973;-68
2023/05/16 12:09:09;;;;;;;;;;;;;;;;;;5070299;28;19920;-69
2023/05/16 12:11:35;;;;;;;;;;;;;;;;;;5069638;28;20332;-68
2023/05/16 12:14:01;;;;;;;;;;;;;;;;;;5082871;28;19927;-68
2023/05/16 12:16:27;;;;;;;;;;;;;;;;;;5089199;28;19928;-68
2023/05/16 12:18:53;;;;;;;;;;;;;;;;;;5090014;28;19973;-68
2023/05/16 12:21:19;;;;;;;;;;;;;;;;;;5070619;28;19920;-66
2023/05/16 12:23:45;;;;;;;;;;;;;;;;;;5085510;28;19928;-67
2023/05/16 12:26:11;;;;;;;;;;;;;;;;;;5083140;28;19920;-67
2023/05/16 12:28:38;;;;;;;;;;;;;;;;;;5068227;28;20425;-67
2023/05/16 12:31:04;;;;;;;;;;;;;;;;;;5090194;28;19969;-67
2023/05/16 12:33:30;;;;;;;;;;;;;;;;;;5070429;28;19927;-67
2023/05/16 12:35:56;;;;;;;;;;;;;;;;;;5082464;28;20310;-65
2023/05/16 12:38:25;;;;;;;;;;;;;;;;;;5085194;28;19921;-68
2023/05/16 12:40:51;;;;;;;;;;;;;;;;;;5090604;28;19920;-68
2023/05/16 12:43:17;;;;;;;;;;;;;;;;;;5101144;28;20294;-67
2023/05/16 12:45:43;;;;;;;;;;;;;;;;;;5089618;28;19934;-68
2023/05/16 12:48:09;;;;;;;;;;;;;;;;;;5089224;28;19974;-68
2023/05/16 12:50:35;;;;;;;;;;;;;;;;;;5088630;28;19928;-66
2023/05/16 12:53:01;;;;;;;;;;;;;;;;;;5089682;28;19969;-70
2023/05/16 12:55:27;;;;;;;;;;;;;;;;;;5081611;28;20624;-69
2023/05/16 12:57:53;;;;;;;;;;;;;;;;;;5071299;28;20035;-68
2023/05/16 13:00:19;;;;;;;;;;;;;;;;;;5071438;28;19946;-69
2023/05/16 13:02:46;;;;;;;;;;;;;;;;;;5089454;28;19928;-67
2023/05/16 13:05:12;;;;;;;;;;;;;;;;;;5089625;28;20398;-66
2023/05/16 13:07:39;;;;;;;;;;;;;;;;;;5088857;28;19924;-68
2023/05/16 13:10:05;;;;;;;;;;;;;;;;;;5069882;28;19924;-68
2023/05/16 13:12:31;;;;;;;;;;;;;;;;;;5068061;28;20480;-69
2023/05/16 13:14:57;;;;;;;;;;;;;;;;;;5059198;28;19935;-68
2023/05/16 13:17:23;;;;;;;;;;;;;;;;;;5062422;28;19920;-68
2023/05/16 13:19:50;;;;;;;;;;;;;;;;;;5086756;28;19919;-68
2023/05/16 13:22:16;;;;;;;;;;;;;;;;;;5084210;28;20007;-66
2023/05/16 13:24:42;;;;;;;;;;;;;;;;;;5077480;28;20616;-67
2023/05/16 13:27:08;;;;;;;;;;;;;;;;;;5078567;28;19928;-68
2023/05/16 13:29:34;;;;;;;;;;;;;;;;;;5085030;28;19924;-68
2023/05/16 13:32:00;;;;;;;;;;;;;;;;;;5084519;28;20382;-68
2023/05/16 13:34:26;;;;;;;;;;;;;;;;;;5071551;28;19924;-69
2023/05/16 13:36:52;;;;;;;;;;;;;;;;;;5089280;28;19920;-69
2023/05/16 13:39:18;;;;;;;;;;;;;;;;;;5089125;28;19924;-68
2023/05/16 13:41:44;;;;;;;;;;;;;;;;;;5089251;28;19959;-69
2023/05/16 13:44:10;;;;;;;;;;;;;;;;;;5086877;28;19928;-69
2023/05/16 13:46:36;;;;;;;;;;;;;;;;;;5070600;28;19920;-69
2023/05/16 13:49:02;;;;;;;;;;;;;;;;;;5082607;28;19920;-69
2023/05/16 13:51:28;;;;;;;;;;;;;;;;;;5075286;28;19957;-69
2023/05/16 13:53:54;;;;;;;;;;;;;;;;;;5066986;28;20013;-68
2023/05/16 13:56:20;;;;;;;;;;;;;;;;;;5082794;28;19924;-70
2023/05/16 13:58:49;;;;;;;;;;;;;;;;;;5093137;28;20406;-68
2023/05/16 14:01:14;;;;;;;;;;;;;;;;;;5063207;28;19928;-69
2023/05/16 14:03:40;;;;;;;;;;;;;;;;;;5057361;28;19924;-66
2023/05/16 14:06:06;;;;;;;;;;;;;;;;;;5089283;28;19972;-68
2023/05/16 14:08:32;;;;;;;;;;;;;;;;;;5088583;28;19924;-67
2023/05/16 14:10:58;;;;;;;;;;;;;;;;;;5082931;28;19947;-66
2023/05/16 14:13:24;;;;;;;;;;;;;;;;;;5083727;28;19924;-67
2023/05/16 14:15:51;;;;;;;;;;;;;;;;;;5081355;28;20370;-68
2023/05/16 14:18:17;;;;;;;;;;;;;;;;;;5091669;28;19926;-67
2023/05/16 14:20:43;;;;;;;;;;;;;;;;;;5068587;28;20733;-66
2023/05/16 14:23:08;;;;;;;;;;;;;;;;;;5057262;28;19931;-68
2023/05/16 14:25:35;;;;;;;;;;;;;;;;;;5073637;28;19976;-68
2023/05/16 14:28:01;;;;;;;;;;;;;;;;;;5061089;28;19930;-69
2023/05/16 14:30:26;;;;;;;;;;;;;;;;;;5085999;28;20374;-69
2023/05/16 14:32:52;;;;;;;;;;;;;;;;;;5045227;28;19965;-71
2023/05/16 14:35:18;;;;;;;;;;;;;;;;;;5060225;28;19985;-69
2023/05/16 14:37:44;;;;;;;;;;;;;;;;;;5081564;28;19952;-68
2023/05/16 14:40:11;;;;;;;;;;;;;;;;;;5081822;28;19955;-68
2023/05/16 14:42:37;;;;;;;;;;;;;;;;;;5074270;28;19935;-71
2023/05/16 14:45:03;;;;;;;;;;;;;;;;;;5081558;28;19920;-71
2023/05/16 14:47:30;;;;;;;;;;;;;;;;;;5076363;28;19920;-68
2023/05/16 14:49:56;;;;;;;;;;;;;;;;;;5061183;28;19924;-69
2023/05/16 14:52:21;;;;;;;;;;;;;;;;;;5045723;28;20038;-69
2023/05/16 14:54:47;;;;;;;;;;;;;;;;;;5086598;28;19973;-69
2023/05/16 14:57:13;;;;;;;;;;;;;;;;;;5070859;28;19981;-69
2023/05/16 14:59:39;;;;;;;;;;;;;;;;;;5090928;28;19924;-71
2023/05/16 15:02:05;;;;;;;;;;;;;;;;;;5077324;28;19920;-67
2023/05/16 15:04:31;;;;;;;;;;;;;;;;;;5079076;28;20294;-67
2023/05/16 15:06:57;;;;;;;;;;;;;;;;;;5062724;28;19924;-68
2023/05/16 15:09:23;;;;;;;;;;;;;;;;;;5070903;28;19920;-64
2023/05/16 15:11:49;;;;;;;;;;;;;;;;;;5072400;28;19966;-64
2023/05/16 15:14:15;;;;;;;;;;;;;;;;;;5072132;28;19924;-64
2023/05/16 15:16:41;;;;;;;;;;;;;;;;;;5071636;28;19963;-64
2023/05/16 15:19:07;;;;;;;;;;;;;;;;;;5072123;28;19944;-64
2023/05/16 15:21:33;;;;;;;;;;;;;;;;;;5072013;28;19921;-64
2023/05/16 15:23:59;;;;;;;;;;;;;;;;;;5071200;28;20145;-64
2023/05/16 15:26:26;;;;;;;;;;;;;;;;;;5084092;28;20576;-64
2023/05/16 15:28:54;;;;;;;;;;;;;;;;;;5092107;28;19920;-64
2023/05/16 15:31:20;;;;;;;;;;;;;;;;;;5091902;28;19967;-64
2023/05/16 15:33:46;;;;;;;;;;;;;;;;;;5092300;28;20313;-64
2023/05/16 15:36:12;;;;;;;;;;;;;;;;;;5092015;28;19920;-64
2023/05/16 15:38:42;;;;;;;;;;;;;;;;;;5091308;28;19930;-64
2023/05/16 15:41:08;;;;;;;;;;;;;;;;;;5073566;28;19924;-64
2023/05/16 15:43:34;;;;;;;;;;;;;;;;;;5091913;28;19993;-64
2023/05/16 15:46:00;;;;;;;;;;;;;;;;;;5091394;28;19924;-64
2023/05/16 15:48:26;;;;;;;;;;;;;;;;;;5091224;28;20009;-64
2023/05/16 15:50:52;;;;;;;;;;;;;;;;;;5071609;28;19955;-64
2023/05/16 15:53:18;;;;;;;;;;;;;;;;;;5052756;28;19925;-64
2023/05/16 15:55:46;;;;;;;;;;;;;;;;;;5071624;28;19927;-64
2023/05/16 15:58:12;;;;;;;;;;;;;;;;;;5071366;28;19924;-64
2023/05/16 16:00:39;;;;;;;;;;;;;;;;;;5070952;28;20247;-64
2023/05/16 16:03:05;;;;;;;;;;;;;;;;;;5071389;28;19946;-64
2023/05/16 16:05:31;;;;;;;;;;;;;;;;;;5071503;28;19924;-64
2023/05/16 16:07:57;;;;;;;;;;;;;;;;;;5070826;28;19920;-64
2023/05/16 16:10:23;;;;;;;;;;;;;;;;;;5071262;28;19925;-64
2023/05/16 16:12:49;;;;;;;;;;;;;;;;;;5071154;28;19924;-64
2023/05/16 16:15:15;;;;;;;;;;;;;;;;;;5052865;28;20306;-64
2023/05/16 16:17:41;;;;;;;;;;;;;;;;;;5071096;28;19974;-64
2023/05/16 16:20:07;;;;;;;;;;;;;;;;;;5052838;28;19921;-64
2023/05/16 16:22:33;;;;;;;;;;;;;;;;;;5070544;28;20028;-64
2023/05/16 16:24:59;;;;;;;;;;;;;;;;;;5071043;28;20045;-64
2023/05/16 16:27:25;;;;;;;;;;;;;;;;;;5091474;28;19942;-64
2023/05/16 16:29:51;;;;;;;;;;;;;;;;;;5090606;28;19931;-64
2023/05/16 16:32:17;;;;;;;;;;;;;;;;;;5090817;28;19928;-64
2023/05/16 16:34:43;;;;;;;;;;;;;;;;;;5091144;28;20027;-64
2023/05/16 16:37:10;;;;;;;;;;;;;;;;;;5090222;28;19964;-64